Lindsay, TX

9:22 AM CDT on August 26, 2016 (GMT -0500)
Gainesville Municipal

Weather History for KGLE - January, 2014

Change the Weather History Date:

Tuesday, January 14, 2014

  Actual Average (KDTO) Record (KDTO)
Temperature  
Mean Temperature 46 °F -  
Max Temperature 62 °F 53 °F 72 °F (2004)
Min Temperature 29 °F 32 °F 24 °F (1997)
Degree Days  
Heating Degree Days 20    
Moisture  
Dew Point 19 °F    
Average Humidity 41    
Maximum Humidity 71    
Minimum Humidity 16    
Precipitation  
Precipitation 0.00 in - - ()
Sea Level Pressure  
Sea Level Pressure 30.14 in    
Wind  
Wind Speed 7 mph (NW)    
Max Wind Speed 22 mph    
Max Gust Speed 28 mph    
Visibility 10 miles    
Events      
Averages and records for this station are not official NWS values.
T = Trace of Precipitation, MM = Missing Value Source: NWS Daily Summary

Daily Weather History Graph

Daily Weather History Graph

Search for Another Location

Airport or City:

Trip Planner

Search our weather history database for the weather conditions in past years. The results will help you decide how hot, cold, wet, or windy it might be!

Date:

Astronomy

Jan. 14, 2014 Rise Set
Actual Time 7:33 AM CST 5:42 PM CST
Civil Twilight 7:06 AM CST 6:09 PM CST
Nautical Twilight 6:35 AM CST 6:40 PM CST
Astronomical Twilight 6:05 AM CST 7:10 PM CST
Moon 4:47 PM CST (1/14) 6:10 AM CST (1/14)
Length of Visible Light 11h 03m
Length of Day
10h 09m
Waxing Gibbous, 98% of the Moon is Illuminated
Jan 14
Waxing Gibbous
Jan 15
Full
Jan 23
Last Quarter
Jan 30
New
Feb 6
First Quarter

Hourly Weather History & Observations

Time (CST) Temp. Windchill Dew Point Humidity Pressure Visibility Wind Dir Wind Speed Gust Speed Precip Events Conditions
12:15 AM 35.8 °F 31.9 °F 20.1 °F 53% 30.06 in 10.0 mi SSW 4.6 mph - N/A   Clear
12:35 AM 36.5 °F - 19.9 °F 51% 30.05 in 10.0 mi Calm Calm - N/A   Clear
12:55 AM 38.3 °F 35.9 °F 20.1 °F 48% 30.05 in 10.0 mi SW 3.5 mph - N/A   Clear
1:15 AM 36.1 °F 33.5 °F 19.8 °F 51% 30.04 in 10.0 mi SW 3.5 mph - N/A   Clear
1:35 AM 35.8 °F 33.0 °F 21.2 °F 55% 30.04 in 10.0 mi SW 3.5 mph - N/A   Clear
1:55 AM 35.8 °F - 21.9 °F 57% 30.02 in 10.0 mi Calm Calm - N/A   Clear
2:15 AM 33.8 °F - 21.0 °F 60% 30.02 in 10.0 mi Calm Calm - N/A   Clear
2:35 AM 35.4 °F - 21.7 °F 58% 30.02 in 10.0 mi Calm Calm - N/A   Clear
2:55 AM 33.3 °F 30.2 °F 21.6 °F 62% 30.02 in 10.0 mi SSE 3.5 mph - N/A   Clear
3:15 AM 33.3 °F 30.2 °F 23.9 °F 69% 30.03 in 10.0 mi South 3.5 mph - N/A   Clear
3:35 AM 36.0 °F 33.3 °F 20.1 °F 53% 30.02 in 10.0 mi SW 3.5 mph - N/A   Clear
3:55 AM 38.3 °F - 18.3 °F 45% 30.01 in 10.0 mi Calm Calm - N/A   Clear
4:15 AM 33.6 °F 30.6 °F 21.0 °F 60% 30.01 in 10.0 mi South 3.5 mph - N/A   Clear
4:35 AM 31.1 °F 26.4 °F 22.5 °F 70% 30.00 in 10.0 mi SSE 4.6 mph - N/A   Clear
4:55 AM 31.1 °F 26.4 °F 22.5 °F 70% 30.00 in 10.0 mi SE 4.6 mph - N/A   Clear
5:15 AM 31.3 °F 27.9 °F 22.6 °F 70% 30.00 in 10.0 mi SSE 3.5 mph - N/A   Clear
5:35 AM 33.3 °F 30.2 °F 23.2 °F 67% 30.00 in 10.0 mi SSE 3.5 mph - N/A   Clear
5:55 AM 29.3 °F - 21.0 °F 71% 30.00 in 10.0 mi Calm Calm - N/A   Clear
6:15 AM 31.1 °F 25.4 °F 22.5 °F 70% 30.01 in 10.0 mi SSE 5.8 mph - N/A   Clear
6:35 AM 30.6 °F 25.8 °F 21.9 °F 70% 30.00 in 10.0 mi SSE 4.6 mph - N/A   Clear
6:55 AM 33.3 °F 30.2 °F 23.0 °F 66% 30.01 in 10.0 mi SSE 3.5 mph - N/A   Clear
7:15 AM 31.1 °F 25.4 °F 21.9 °F 69% 30.02 in 10.0 mi SE 5.8 mph - N/A   Clear
7:35 AM 32.5 °F 28.1 °F 23.2 °F 68% 30.03 in 10.0 mi ESE 4.6 mph - N/A   Clear
7:55 AM 33.3 °F 30.2 °F 23.7 °F 68% 30.03 in 10.0 mi ESE 3.5 mph - N/A   Clear
8:15 AM 33.8 °F - 24.6 °F 69% 30.04 in 10.0 mi Calm Calm - N/A   Clear
8:35 AM 35.8 °F - 25.7 °F 67% 30.04 in 10.0 mi Calm Calm - N/A   Clear
8:55 AM 37.8 °F 29.4 °F 27.7 °F 67% 30.09 in 10.0 mi NNW 13.8 mph 20.7 mph N/A   Clear
9:15 AM 42.3 °F 35.9 °F 20.5 °F 42% 30.09 in 10.0 mi NW 11.5 mph 21.9 mph N/A   Clear
9:35 AM 46.8 °F - 18.1 °F 32% 30.09 in 10.0 mi West 5.8 mph - N/A   Clear
9:55 AM 48.4 °F - 16.9 °F 29% 30.10 in 10.0 mi West 9.2 mph - N/A   Clear
10:15 AM 52.5 °F - 14.7 °F 22% 30.10 in 10.0 mi West 6.9 mph - N/A   Clear
10:35 AM 53.6 °F - 11.5 °F 19% 30.10 in 10.0 mi NW 11.5 mph 18.4 mph N/A   Clear
10:55 AM 55.8 °F - 9.5 °F 16% 30.10 in 10.0 mi NNW 13.8 mph 18.4 mph N/A   Clear
11:15 AM 57.7 °F - 14.4 °F 18% 30.10 in 10.0 mi North 15.0 mph 19.6 mph N/A   Clear
11:35 AM 58.3 °F - 14.9 °F 18% 30.10 in 10.0 mi North 18.4 mph 24.2 mph N/A   Clear
11:55 AM 60.6 °F - 19.6 °F 20% 30.10 in 10.0 mi NNE 17.3 mph 24.2 mph N/A   Clear
12:15 PM 59.5 °F - 21.4 °F 23% 30.10 in 10.0 mi North 17.3 mph 24.2 mph N/A   Clear
12:35 PM 60.8 °F - 21.6 °F 22% 30.09 in 10.0 mi North 18.4 mph 26.5 mph N/A   Clear
12:55 PM 61.0 °F - 21.7 °F 22% 30.09 in 10.0 mi North 15.0 mph 24.2 mph N/A   Clear
1:15 PM 61.3 °F - 24.8 °F 25% 30.08 in 10.0 mi North 12.7 mph 23.0 mph N/A   Clear
1:35 PM 61.0 °F - 25.2 °F 25% 30.09 in 10.0 mi North 16.1 mph 21.9 mph N/A   Clear
1:55 PM 61.9 °F - 25.3 °F 25% 30.08 in 10.0 mi NNE 13.8 mph 19.6 mph N/A   Mostly Cloudy
2:15 PM 62.4 °F - 24.8 °F 24% 30.09 in 10.0 mi North 19.6 mph 25.3 mph N/A   Scattered Clouds
2:35 PM 60.8 °F - 25.3 °F 26% 30.10 in 10.0 mi NNW 17.3 mph - N/A   Scattered Clouds
2:55 PM 60.8 °F - 26.1 °F 27% 30.11 in 10.0 mi North 16.1 mph 21.9 mph N/A   Clear
3:15 PM 58.6 °F - 28.4 °F 32% 30.13 in 10.0 mi NNW 21.9 mph 26.5 mph N/A   Scattered Clouds
3:35 PM 56.3 °F - 28.9 °F 35% 30.15 in 10.0 mi NNW 20.7 mph 25.3 mph N/A   Mostly Cloudy
3:55 PM 55.8 °F - 27.1 °F 33% 30.17 in 10.0 mi NNW 21.9 mph 25.3 mph N/A   Scattered Clouds
4:15 PM 55.8 °F - 25.5 °F 31% 30.19 in 10.0 mi North 13.8 mph - N/A   Clear
4:35 PM 55.6 °F - 26.1 °F 32% 30.20 in 10.0 mi NNW 15.0 mph - N/A   Clear
4:55 PM 54.7 °F - 21.0 °F 27% 30.22 in 10.0 mi NNW 18.4 mph 24.2 mph N/A   Scattered Clouds
5:15 PM 53.6 °F - 18.0 °F 25% 30.23 in 10.0 mi North 17.3 mph 24.2 mph N/A   Mostly Cloudy
5:35 PM 53.6 °F - 16.0 °F 23% 30.25 in 10.0 mi NNW 18.4 mph 24.2 mph N/A   Overcast
5:55 PM 53.6 °F - 13.8 °F 21% 30.26 in 10.0 mi North 18.4 mph 27.6 mph N/A   Mostly Cloudy
6:15 PM 50.5 °F - 13.8 °F 23% 30.28 in 10.0 mi NNW 16.1 mph 23.0 mph N/A   Scattered Clouds
6:35 PM 48.9 °F - 13.6 °F 24% 30.29 in 10.0 mi NNW 11.5 mph - N/A   Clear
6:55 PM 48.4 °F - 18.7 °F 31% 30.31 in 10.0 mi NW 9.2 mph - N/A   Clear
7:15 PM 48.4 °F - 18.5 °F 31% 30.31 in 10.0 mi NNW 13.8 mph - N/A   Clear
7:35 PM 48.4 °F - 15.8 °F 27% 30.32 in 10.0 mi NNW 16.1 mph - N/A   Clear
7:55 PM 48.4 °F - 15.4 °F 27% 30.33 in 10.0 mi NNW 16.1 mph 19.6 mph N/A   Clear
8:15 PM 45.9 °F 39.7 °F 14.7 °F 29% 30.35 in 10.0 mi NW 13.8 mph - N/A   Clear
8:35 PM 45.9 °F 40.0 °F 12.0 °F 25% 30.36 in 10.0 mi NNW 12.7 mph - N/A   Clear
8:55 PM 41.9 °F 36.3 °F 11.7 °F 29% 30.37 in 10.0 mi NNW 9.2 mph - N/A   Clear
9:15 PM 41.0 °F 35.2 °F 10.9 °F 29% 30.37 in 10.0 mi NW 9.2 mph - N/A   Clear
9:35 PM 41.0 °F 34.3 °F 11.5 °F 30% 30.37 in 10.0 mi NW 11.5 mph - N/A   Clear
9:55 PM 40.6 °F 34.3 °F 11.3 °F 30% 30.37 in 10.0 mi NW 10.4 mph - N/A   Clear
10:15 PM 38.3 °F 32.5 °F 11.3 °F 33% 30.37 in 10.0 mi NW 8.1 mph - N/A   Clear
10:35 PM 38.3 °F 31.9 °F 12.9 °F 35% 30.37 in 10.0 mi NW 9.2 mph - N/A   Clear
10:55 PM 36.1 °F 30.6 °F 12.4 °F 38% 30.37 in 10.0 mi NW 6.9 mph - N/A   Clear
11:15 PM 38.3 °F 31.9 °F 12.2 °F 34% 30.36 in 10.0 mi WNW 9.2 mph - N/A   Clear
11:35 PM 38.3 °F 31.9 °F 12.9 °F 35% 30.36 in 10.0 mi WNW 9.2 mph - N/A   Clear
11:55 PM 38.3 °F 31.9 °F 13.3 °F 36% 30.36 in 10.0 mi WNW 9.2 mph - N/A   Clear